sensor_id;sensor_type;location;lat;lon;timestamp;P1;durP1;ratioP1;P2;durP2;ratioP2
41897;SDS011;27576;53.366;-1.498;2022-10-31T00:00:21;15.73;;;4.45;;
41897;SDS011;27576;53.366;-1.498;2022-10-31T00:02:46;18.60;;;4.75;;
41897;SDS011;27576;53.366;-1.498;2022-10-31T00:05:12;20.98;;;5.22;;
41897;SDS011;27576;53.366;-1.498;2022-10-31T00:07:37;29.90;;;6.28;;
41897;SDS011;27576;53.366;-1.498;2022-10-31T00:10:03;25.40;;;5.43;;
41897;SDS011;27576;53.366;-1.498;2022-10-31T00:12:28;19.35;;;5.25;;
41897;SDS011;27576;53.366;-1.498;2022-10-31T00:14:54;18.98;;;5.18;;
41897;SDS011;27576;53.366;-1.498;2022-10-31T00:17:19;22.10;;;5.20;;
41897;SDS011;27576;53.366;-1.498;2022-10-31T00:19:44;20.90;;;4.72;;
41897;SDS011;27576;53.366;-1.498;2022-10-31T00:22:10;19.52;;;4.40;;
41897;SDS011;27576;53.366;-1.498;2022-10-31T00:24:35;23.52;;;5.38;;
41897;SDS011;27576;53.366;-1.498;2022-10-31T00:27:01;16.50;;;4.35;;
41897;SDS011;27576;53.366;-1.498;2022-10-31T00:29:26;26.02;;;5.15;;
41897;SDS011;27576;53.366;-1.498;2022-10-31T00:31:51;15.85;;;4.75;;
41897;SDS011;27576;53.366;-1.498;2022-10-31T00:34:17;18.33;;;4.85;;
41897;SDS011;27576;53.366;-1.498;2022-10-31T00:36:42;13.48;;;4.38;;
41897;SDS011;27576;53.366;-1.498;2022-10-31T00:39:08;14.15;;;4.38;;
41897;SDS011;27576;53.366;-1.498;2022-10-31T00:41:33;25.25;;;5.57;;
41897;SDS011;27576;53.366;-1.498;2022-10-31T00:43:59;11.00;;;4.28;;
41897;SDS011;27576;53.366;-1.498;2022-10-31T00:46:24;24.00;;;5.43;;
41897;SDS011;27576;53.366;-1.498;2022-10-31T00:48:49;21.05;;;4.93;;
41897;SDS011;27576;53.366;-1.498;2022-10-31T00:51:15;18.08;;;4.90;;
41897;SDS011;27576;53.366;-1.498;2022-10-31T00:53:40;22.90;;;5.03;;
41897;SDS011;27576;53.366;-1.498;2022-10-31T00:56:05;23.92;;;5.43;;
41897;SDS011;27576;53.366;-1.498;2022-10-31T00:58:31;18.70;;;4.90;;
41897;SDS011;27576;53.366;-1.498;2022-10-31T01:00:57;11.18;;;3.90;;
41897;SDS011;27576;53.366;-1.498;2022-10-31T01:03:26;16.00;;;4.43;;
41897;SDS011;27576;53.366;-1.498;2022-10-31T01:05:55;19.27;;;5.28;;
41897;SDS011;27576;53.366;-1.498;2022-10-31T01:08:24;18.13;;;4.65;;
41897;SDS011;27576;53.366;-1.498;2022-10-31T01:11:00;10.55;;;4.50;;
41897;SDS011;27576;53.366;-1.498;2022-10-31T01:13:31;9.32;;;3.97;;
41897;SDS011;27576;53.366;-1.498;2022-10-31T01:15:57;15.38;;;4.20;;
41897;SDS011;27576;53.366;-1.498;2022-10-31T01:18:24;12.55;;;4.38;;
41897;SDS011;27576;53.366;-1.498;2022-10-31T01:20:57;15.80;;;4.40;;
41897;SDS011;27576;53.366;-1.498;2022-10-31T01:23:23;16.00;;;4.65;;
41897;SDS011;27576;53.366;-1.498;2022-10-31T01:25:49;18.38;;;4.70;;
41897;SDS011;27576;53.366;-1.498;2022-10-31T01:28:14;20.13;;;4.95;;
41897;SDS011;27576;53.366;-1.498;2022-10-31T01:30:39;15.10;;;4.45;;
41897;SDS011;27576;53.366;-1.498;2022-10-31T01:33:05;14.30;;;4.18;;
41897;SDS011;27576;53.366;-1.498;2022-10-31T01:35:30;17.13;;;5.28;;
41897;SDS011;27576;53.366;-1.498;2022-10-31T01:37:55;15.63;;;4.55;;
41897;SDS011;27576;53.366;-1.498;2022-10-31T01:40:21;16.15;;;4.80;;
41897;SDS011;27576;53.366;-1.498;2022-10-31T01:42:46;11.60;;;3.90;;
41897;SDS011;27576;53.366;-1.498;2022-10-31T01:45:11;14.95;;;5.10;;
41897;SDS011;27576;53.366;-1.498;2022-10-31T01:47:41;24.20;;;4.82;;
41897;SDS011;27576;53.366;-1.498;2022-10-31T01:50:11;16.27;;;4.43;;
41897;SDS011;27576;53.366;-1.498;2022-10-31T01:52:41;21.55;;;4.82;;
41897;SDS011;27576;53.366;-1.498;2022-10-31T01:57:39;18.60;;;4.78;;
41897;SDS011;27576;53.366;-1.498;2022-10-31T02:00:08;27.08;;;5.22;;
41897;SDS011;27576;53.366;-1.498;2022-10-31T02:02:35;15.25;;;4.30;;
41897;SDS011;27576;53.366;-1.498;2022-10-31T02:05:02;12.13;;;4.82;;
41897;SDS011;27576;53.366;-1.498;2022-10-31T02:07:34;11.80;;;4.30;;
41897;SDS011;27576;53.366;-1.498;2022-10-31T02:10:13;14.88;;;4.53;;
41897;SDS011;27576;53.366;-1.498;2022-10-31T02:12:40;8.63;;;3.03;;
41897;SDS011;27576;53.366;-1.498;2022-10-31T02:15:06;16.73;;;4.50;;
41897;SDS011;27576;53.366;-1.498;2022-10-31T02:17:32;18.20;;;5.25;;
41897;SDS011;27576;53.366;-1.498;2022-10-31T02:20:05;26.25;;;5.63;;
41897;SDS011;27576;53.366;-1.498;2022-10-31T02:41:48;26.83;;;5.50;;
41897;SDS011;27576;53.366;-1.498;2022-10-31T02:49:45;21.73;;;5.88;;
41897;SDS011;27576;53.366;-1.498;2022-10-31T02:52:19;23.42;;;6.45;;
41897;SDS011;27576;53.366;-1.498;2022-10-31T02:54:46;18.83;;;5.20;;
41897;SDS011;27576;53.366;-1.498;2022-10-31T02:57:12;19.15;;;4.38;;
41897;SDS011;27576;53.366;-1.498;2022-10-31T02:59:44;23.63;;;5.65;;
41897;SDS011;27576;53.366;-1.498;2022-10-31T03:04:59;27.77;;;5.65;;
41897;SDS011;27576;53.366;-1.498;2022-10-31T03:12:47;25.15;;;5.05;;
41897;SDS011;27576;53.366;-1.498;2022-10-31T03:15:32;31.20;;;6.00;;
41897;SDS011;27576;53.366;-1.498;2022-10-31T03:18:20;30.77;;;6.20;;
41897;SDS011;27576;53.366;-1.498;2022-10-31T03:20:49;28.50;;;5.90;;
41897;SDS011;27576;53.366;-1.498;2022-10-31T03:23:20;22.50;;;4.78;;
41897;SDS011;27576;53.366;-1.498;2022-10-31T03:25:47;23.77;;;5.72;;
41897;SDS011;27576;53.366;-1.498;2022-10-31T03:28:14;32.40;;;5.85;;
41897;SDS011;27576;53.366;-1.498;2022-10-31T03:30:44;32.47;;;5.45;;
41897;SDS011;27576;53.366;-1.498;2022-10-31T03:33:12;24.52;;;5.22;;
41897;SDS011;27576;53.366;-1.498;2022-10-31T03:35:42;25.65;;;4.95;;
41897;SDS011;27576;53.366;-1.498;2022-10-31T03:38:12;20.83;;;4.97;;
41897;SDS011;27576;53.366;-1.498;2022-10-31T03:40:38;19.52;;;5.57;;
41897;SDS011;27576;53.366;-1.498;2022-10-31T03:43:10;25.50;;;5.93;;
41897;SDS011;27576;53.366;-1.498;2022-10-31T03:45:43;27.58;;;5.35;;
41897;SDS011;27576;53.366;-1.498;2022-10-31T03:48:10;18.42;;;5.03;;
41897;SDS011;27576;53.366;-1.498;2022-10-31T03:53:25;19.63;;;4.88;;
41897;SDS011;27576;53.366;-1.498;2022-10-31T03:57:00;29.48;;;4.90;;
41897;SDS011;27576;53.366;-1.498;2022-10-31T03:58:58;15.05;;;3.85;;
41897;SDS011;27576;53.366;-1.498;2022-10-31T04:01:25;23.85;;;5.43;;
41897;SDS011;27576;53.366;-1.498;2022-10-31T04:03:55;20.15;;;4.55;;
41897;SDS011;27576;53.366;-1.498;2022-10-31T04:06:21;27.05;;;4.95;;
41897;SDS011;27576;53.366;-1.498;2022-10-31T04:08:52;24.50;;;5.18;;
41897;SDS011;27576;53.366;-1.498;2022-10-31T04:11:23;20.52;;;4.28;;
41897;SDS011;27576;53.366;-1.498;2022-10-31T04:13:53;21.73;;;4.45;;
41897;SDS011;27576;53.366;-1.498;2022-10-31T04:16:20;20.00;;;4.22;;
41897;SDS011;27576;53.366;-1.498;2022-10-31T04:18:48;26.48;;;6.15;;
41897;SDS011;27576;53.366;-1.498;2022-10-31T04:21:13;24.55;;;6.78;;
41897;SDS011;27576;53.366;-1.498;2022-10-31T04:23:39;24.65;;;5.50;;
41897;SDS011;27576;53.366;-1.498;2022-10-31T04:26:04;25.35;;;6.47;;
41897;SDS011;27576;53.366;-1.498;2022-10-31T04:28:29;22.83;;;4.47;;
41897;SDS011;27576;53.366;-1.498;2022-10-31T04:30:55;19.67;;;5.40;;
41897;SDS011;27576;53.366;-1.498;2022-10-31T04:33:20;29.30;;;5.32;;
41897;SDS011;27576;53.366;-1.498;2022-10-31T04:35:46;17.45;;;4.68;;
41897;SDS011;27576;53.366;-1.498;2022-10-31T04:38:11;15.00;;;4.05;;
41897;SDS011;27576;53.366;-1.498;2022-10-31T04:40:37;22.25;;;4.75;;
41897;SDS011;27576;53.366;-1.498;2022-10-31T04:43:02;19.50;;;5.22;;
41897;SDS011;27576;53.366;-1.498;2022-10-31T04:45:28;25.67;;;4.95;;
41897;SDS011;27576;53.366;-1.498;2022-10-31T04:47:53;23.20;;;4.53;;
41897;SDS011;27576;53.366;-1.498;2022-10-31T04:50:18;26.70;;;4.80;;
41897;SDS011;27576;53.366;-1.498;2022-10-31T04:52:44;24.05;;;3.95;;
41897;SDS011;27576;53.366;-1.498;2022-10-31T04:55:11;22.67;;;4.38;;
41897;SDS011;27576;53.366;-1.498;2022-10-31T04:57:44;21.23;;;4.80;;
41897;SDS011;27576;53.366;-1.498;2022-10-31T05:00:12;14.60;;;3.72;;
41897;SDS011;27576;53.366;-1.498;2022-10-31T05:02:43;22.17;;;5.18;;
41897;SDS011;27576;53.366;-1.498;2022-10-31T05:05:12;18.90;;;4.07;;
41897;SDS011;27576;53.366;-1.498;2022-10-31T05:07:40;27.40;;;4.95;;
41897;SDS011;27576;53.366;-1.498;2022-10-31T05:10:13;19.58;;;4.65;;
41897;SDS011;27576;53.366;-1.498;2022-10-31T05:12:50;18.42;;;4.30;;
41897;SDS011;27576;53.366;-1.498;2022-10-31T05:15:18;22.98;;;4.85;;
41897;SDS011;27576;53.366;-1.498;2022-10-31T05:17:44;17.83;;;4.65;;
41897;SDS011;27576;53.366;-1.498;2022-10-31T05:20:10;17.23;;;3.78;;
41897;SDS011;27576;53.366;-1.498;2022-10-31T05:22:41;19.00;;;4.75;;
41897;SDS011;27576;53.366;-1.498;2022-10-31T05:25:11;22.95;;;4.97;;
41897;SDS011;27576;53.366;-1.498;2022-10-31T05:27:40;21.80;;;4.45;;
41897;SDS011;27576;53.366;-1.498;2022-10-31T05:30:07;25.20;;;4.40;;
41897;SDS011;27576;53.366;-1.498;2022-10-31T05:32:40;26.83;;;4.35;;
41897;SDS011;27576;53.366;-1.498;2022-10-31T05:35:07;22.58;;;4.78;;
41897;SDS011;27576;53.366;-1.498;2022-10-31T05:37:37;22.77;;;4.38;;
41897;SDS011;27576;53.366;-1.498;2022-10-31T05:40:03;23.67;;;4.10;;
41897;SDS011;27576;53.366;-1.498;2022-10-31T05:42:30;20.55;;;4.65;;
41897;SDS011;27576;53.366;-1.498;2022-10-31T05:44:55;22.40;;;3.70;;
41897;SDS011;27576;53.366;-1.498;2022-10-31T05:47:20;23.00;;;4.40;;
41897;SDS011;27576;53.366;-1.498;2022-10-31T05:49:46;18.38;;;4.63;;
41897;SDS011;27576;53.366;-1.498;2022-10-31T05:52:11;22.02;;;3.88;;
41897;SDS011;27576;53.366;-1.498;2022-10-31T05:54:36;16.17;;;4.40;;
41897;SDS011;27576;53.366;-1.498;2022-10-31T05:57:02;25.67;;;5.35;;
41897;SDS011;27576;53.366;-1.498;2022-10-31T05:59:27;22.88;;;5.45;;
41897;SDS011;27576;53.366;-1.498;2022-10-31T06:01:53;18.65;;;4.45;;
41897;SDS011;27576;53.366;-1.498;2022-10-31T06:04:18;26.65;;;4.57;;
41897;SDS011;27576;53.366;-1.498;2022-10-31T06:06:43;27.80;;;4.72;;
41897;SDS011;27576;53.366;-1.498;2022-10-31T06:09:09;19.48;;;3.78;;
41897;SDS011;27576;53.366;-1.498;2022-10-31T06:11:34;15.13;;;3.58;;
41897;SDS011;27576;53.366;-1.498;2022-10-31T06:13:59;13.65;;;3.47;;
41897;SDS011;27576;53.366;-1.498;2022-10-31T06:16:25;20.00;;;3.97;;
41897;SDS011;27576;53.366;-1.498;2022-10-31T06:18:50;21.95;;;4.53;;
41897;SDS011;27576;53.366;-1.498;2022-10-31T06:21:16;21.05;;;4.40;;
41897;SDS011;27576;53.366;-1.498;2022-10-31T06:23:42;19.25;;;4.68;;
41897;SDS011;27576;53.366;-1.498;2022-10-31T06:26:07;15.70;;;3.30;;
41897;SDS011;27576;53.366;-1.498;2022-10-31T06:28:33;22.73;;;4.70;;
41897;SDS011;27576;53.366;-1.498;2022-10-31T06:30:58;19.75;;;4.55;;
41897;SDS011;27576;53.366;-1.498;2022-10-31T06:33:24;20.35;;;3.63;;
41897;SDS011;27576;53.366;-1.498;2022-10-31T06:35:49;21.15;;;4.13;;
41897;SDS011;27576;53.366;-1.498;2022-10-31T06:38:14;16.23;;;4.03;;
41897;SDS011;27576;53.366;-1.498;2022-10-31T06:40:40;10.60;;;3.58;;
41897;SDS011;27576;53.366;-1.498;2022-10-31T06:43:06;13.85;;;3.67;;
41897;SDS011;27576;53.366;-1.498;2022-10-31T06:45:31;16.20;;;3.60;;
41897;SDS011;27576;53.366;-1.498;2022-10-31T06:47:57;16.65;;;4.22;;
41897;SDS011;27576;53.366;-1.498;2022-10-31T06:50:22;16.67;;;3.67;;
41897;SDS011;27576;53.366;-1.498;2022-10-31T06:52:56;20.98;;;4.72;;
41897;SDS011;27576;53.366;-1.498;2022-10-31T06:55:23;20.70;;;4.32;;
41897;SDS011;27576;53.366;-1.498;2022-10-31T06:57:50;19.00;;;4.40;;
41897;SDS011;27576;53.366;-1.498;2022-10-31T07:00:16;19.13;;;4.00;;
41897;SDS011;27576;53.366;-1.498;2022-10-31T07:02:42;15.50;;;4.38;;
41897;SDS011;27576;53.366;-1.498;2022-10-31T07:05:07;22.33;;;5.15;;
41897;SDS011;27576;53.366;-1.498;2022-10-31T07:07:33;16.33;;;3.58;;
41897;SDS011;27576;53.366;-1.498;2022-10-31T07:09:58;14.02;;;4.00;;
41897;SDS011;27576;53.366;-1.498;2022-10-31T07:12:23;22.00;;;3.65;;
41897;SDS011;27576;53.366;-1.498;2022-10-31T07:14:49;13.30;;;3.42;;
41897;SDS011;27576;53.366;-1.498;2022-10-31T07:17:14;16.65;;;3.70;;
41897;SDS011;27576;53.366;-1.498;2022-10-31T07:19:40;23.00;;;4.22;;
41897;SDS011;27576;53.366;-1.498;2022-10-31T07:22:06;18.45;;;3.88;;
41897;SDS011;27576;53.366;-1.498;2022-10-31T07:24:31;15.88;;;3.60;;
41897;SDS011;27576;53.366;-1.498;2022-10-31T07:26:57;16.00;;;3.72;;
41897;SDS011;27576;53.366;-1.498;2022-10-31T07:29:22;12.25;;;3.47;;
41897;SDS011;27576;53.366;-1.498;2022-10-31T07:31:47;16.88;;;3.85;;
41897;SDS011;27576;53.366;-1.498;2022-10-31T07:34:13;13.98;;;2.97;;
41897;SDS011;27576;53.366;-1.498;2022-10-31T07:36:38;12.55;;;4.35;;
41897;SDS011;27576;53.366;-1.498;2022-10-31T07:39:04;18.58;;;4.25;;
41897;SDS011;27576;53.366;-1.498;2022-10-31T07:41:29;14.07;;;3.25;;
41897;SDS011;27576;53.366;-1.498;2022-10-31T07:43:54;17.42;;;4.03;;
41897;SDS011;27576;53.366;-1.498;2022-10-31T07:46:21;22.13;;;3.88;;
41897;SDS011;27576;53.366;-1.498;2022-10-31T07:48:47;15.23;;;4.00;;
41897;SDS011;27576;53.366;-1.498;2022-10-31T07:51:12;16.48;;;3.80;;
41897;SDS011;27576;53.366;-1.498;2022-10-31T07:53:37;10.75;;;3.33;;
41897;SDS011;27576;53.366;-1.498;2022-10-31T07:56:03;16.15;;;3.95;;
41897;SDS011;27576;53.366;-1.498;2022-10-31T07:58:28;20.65;;;4.30;;
41897;SDS011;27576;53.366;-1.498;2022-10-31T08:00:54;21.58;;;3.80;;
41897;SDS011;27576;53.366;-1.498;2022-10-31T08:03:19;19.88;;;3.58;;
41897;SDS011;27576;53.366;-1.498;2022-10-31T08:05:45;15.18;;;3.13;;
41897;SDS011;27576;53.366;-1.498;2022-10-31T08:08:11;19.55;;;3.78;;
41897;SDS011;27576;53.366;-1.498;2022-10-31T08:10:37;17.50;;;3.60;;
41897;SDS011;27576;53.366;-1.498;2022-10-31T08:13:05;13.02;;;3.05;;
41897;SDS011;27576;53.366;-1.498;2022-10-31T08:15:31;13.80;;;3.50;;
41897;SDS011;27576;53.366;-1.498;2022-10-31T08:17:59;19.98;;;3.05;;
41897;SDS011;27576;53.366;-1.498;2022-10-31T08:20:24;22.05;;;4.30;;
41897;SDS011;27576;53.366;-1.498;2022-10-31T08:22:56;14.48;;;3.15;;
41897;SDS011;27576;53.366;-1.498;2022-10-31T08:25:23;25.83;;;3.88;;
41897;SDS011;27576;53.366;-1.498;2022-10-31T08:27:50;22.27;;;4.28;;
41897;SDS011;27576;53.366;-1.498;2022-10-31T08:30:17;18.70;;;3.60;;
41897;SDS011;27576;53.366;-1.498;2022-10-31T08:32:42;12.75;;;3.00;;
41897;SDS011;27576;53.366;-1.498;2022-10-31T08:35:08;9.40;;;3.35;;
41897;SDS011;27576;53.366;-1.498;2022-10-31T08:37:33;21.25;;;4.18;;
41897;SDS011;27576;53.366;-1.498;2022-10-31T08:39:59;17.10;;;3.88;;
41897;SDS011;27576;53.366;-1.498;2022-10-31T08:42:24;19.25;;;4.13;;
41897;SDS011;27576;53.366;-1.498;2022-10-31T08:44:49;14.02;;;3.67;;
41897;SDS011;27576;53.366;-1.498;2022-10-31T08:47:15;17.95;;;3.65;;
41897;SDS011;27576;53.366;-1.498;2022-10-31T08:49:40;19.23;;;3.38;;
41897;SDS011;27576;53.366;-1.498;2022-10-31T08:52:05;17.48;;;3.40;;
41897;SDS011;27576;53.366;-1.498;2022-10-31T08:54:31;19.00;;;3.22;;
41897;SDS011;27576;53.366;-1.498;2022-10-31T08:56:56;19.55;;;4.25;;
41897;SDS011;27576;53.366;-1.498;2022-10-31T08:59:22;16.70;;;4.00;;
41897;SDS011;27576;53.366;-1.498;2022-10-31T09:01:47;14.88;;;3.72;;
41897;SDS011;27576;53.366;-1.498;2022-10-31T09:04:12;16.40;;;3.15;;
41897;SDS011;27576;53.366;-1.498;2022-10-31T09:06:38;17.08;;;3.60;;
41897;SDS011;27576;53.366;-1.498;2022-10-31T09:09:03;21.77;;;3.92;;
41897;SDS011;27576;53.366;-1.498;2022-10-31T09:11:29;15.05;;;3.85;;
41897;SDS011;27576;53.366;-1.498;2022-10-31T09:13:56;19.40;;;3.33;;
41897;SDS011;27576;53.366;-1.498;2022-10-31T09:16:21;17.00;;;3.75;;
41897;SDS011;27576;53.366;-1.498;2022-10-31T09:18:46;18.52;;;3.58;;
41897;SDS011;27576;53.366;-1.498;2022-10-31T09:21:12;25.88;;;4.53;;
41897;SDS011;27576;53.366;-1.498;2022-10-31T09:23:37;17.65;;;4.22;;
41897;SDS011;27576;53.366;-1.498;2022-10-31T09:26:02;18.40;;;3.92;;
41897;SDS011;27576;53.366;-1.498;2022-10-31T09:28:28;16.10;;;3.97;;
41897;SDS011;27576;53.366;-1.498;2022-10-31T09:30:54;20.73;;;3.67;;
41897;SDS011;27576;53.366;-1.498;2022-10-31T09:33:20;22.63;;;4.00;;
41897;SDS011;27576;53.366;-1.498;2022-10-31T09:35:46;15.93;;;3.53;;
41897;SDS011;27576;53.366;-1.498;2022-10-31T09:38:12;18.38;;;3.95;;
41897;SDS011;27576;53.366;-1.498;2022-10-31T09:40:48;17.17;;;3.22;;
41897;SDS011;27576;53.366;-1.498;2022-10-31T09:48:40;17.73;;;3.75;;
41897;SDS011;27576;53.366;-1.498;2022-10-31T09:51:29;17.10;;;3.95;;
41897;SDS011;27576;53.366;-1.498;2022-10-31T09:54:18;13.88;;;2.95;;
41897;SDS011;27576;53.366;-1.498;2022-10-31T09:56:51;11.73;;;3.55;;
41897;SDS011;27576;53.366;-1.498;2022-10-31T09:59:19;18.15;;;4.20;;
41897;SDS011;27576;53.366;-1.498;2022-10-31T10:01:58;21.05;;;3.65;;
41897;SDS011;27576;53.366;-1.498;2022-10-31T10:09:55;15.68;;;3.22;;
41897;SDS011;27576;53.366;-1.498;2022-10-31T10:21:09;21.00;;;5.05;;
41897;SDS011;27576;53.366;-1.498;2022-10-31T10:26:20;13.48;;;2.97;;
41897;SDS011;27576;53.366;-1.498;2022-10-31T10:28:49;11.60;;;2.97;;
41897;SDS011;27576;53.366;-1.498;2022-10-31T10:31:28;15.07;;;2.78;;
41897;SDS011;27576;53.366;-1.498;2022-10-31T10:34:07;12.70;;;3.05;;
41897;SDS011;27576;53.366;-1.498;2022-10-31T10:36:42;15.27;;;3.20;;
41897;SDS011;27576;53.366;-1.498;2022-10-31T10:39:22;17.13;;;3.28;;
41897;SDS011;27576;53.366;-1.498;2022-10-31T10:41:51;16.63;;;2.70;;
41897;SDS011;27576;53.366;-1.498;2022-10-31T10:44:39;12.00;;;2.88;;
41897;SDS011;27576;53.366;-1.498;2022-10-31T10:47:26;13.27;;;2.83;;
41897;SDS011;27576;53.366;-1.498;2022-10-31T10:50:17;13.32;;;3.05;;
41897;SDS011;27576;53.366;-1.498;2022-10-31T10:52:57;14.23;;;3.35;;
41897;SDS011;27576;53.366;-1.498;2022-10-31T10:55:41;12.45;;;2.47;;
41897;SDS011;27576;53.366;-1.498;2022-10-31T10:58:18;13.98;;;3.17;;
41897;SDS011;27576;53.366;-1.498;2022-10-31T11:00:44;18.45;;;3.88;;
41897;SDS011;27576;53.366;-1.498;2022-10-31T11:03:13;15.38;;;3.55;;
41897;SDS011;27576;53.366;-1.498;2022-10-31T11:08:28;16.35;;;2.83;;
41897;SDS011;27576;53.366;-1.498;2022-10-31T11:13:26;11.30;;;3.33;;
41897;SDS011;27576;53.366;-1.498;2022-10-31T11:16:08;7.07;;;2.53;;
41897;SDS011;27576;53.366;-1.498;2022-10-31T11:18:39;11.82;;;2.92;;
41897;SDS011;27576;53.366;-1.498;2022-10-31T11:21:19;16.02;;;3.53;;
41897;SDS011;27576;53.366;-1.498;2022-10-31T11:23:46;18.83;;;3.55;;
41897;SDS011;27576;53.366;-1.498;2022-10-31T11:26:30;15.77;;;4.03;;
41897;SDS011;27576;53.366;-1.498;2022-10-31T11:28:56;15.30;;;3.05;;
41897;SDS011;27576;53.366;-1.498;2022-10-31T11:31:22;13.18;;;2.90;;
41897;SDS011;27576;53.366;-1.498;2022-10-31T11:33:49;12.43;;;2.83;;
41897;SDS011;27576;53.366;-1.498;2022-10-31T11:36:38;18.27;;;2.70;;
41897;SDS011;27576;53.366;-1.498;2022-10-31T11:39:13;15.25;;;3.85;;
41897;SDS011;27576;53.366;-1.498;2022-10-31T11:41:42;10.25;;;3.78;;
41897;SDS011;27576;53.366;-1.498;2022-10-31T11:44:15;10.32;;;3.08;;
41897;SDS011;27576;53.366;-1.498;2022-10-31T11:46:47;11.68;;;3.05;;
41897;SDS011;27576;53.366;-1.498;2022-10-31T11:49:19;13.13;;;3.08;;
41897;SDS011;27576;53.366;-1.498;2022-10-31T11:51:52;10.38;;;3.17;;
41897;SDS011;27576;53.366;-1.498;2022-10-31T11:54:28;16.70;;;3.22;;
41897;SDS011;27576;53.366;-1.498;2022-10-31T11:56:57;14.32;;;3.13;;
41897;SDS011;27576;53.366;-1.498;2022-10-31T11:59:25;17.55;;;3.38;;
41897;SDS011;27576;53.366;-1.498;2022-10-31T12:01:56;14.82;;;3.55;;
41897;SDS011;27576;53.366;-1.498;2022-10-31T12:04:25;13.63;;;3.20;;
41897;SDS011;27576;53.366;-1.498;2022-10-31T12:07:00;13.65;;;3.10;;
41897;SDS011;27576;53.366;-1.498;2022-10-31T12:09:29;20.33;;;3.67;;
41897;SDS011;27576;53.366;-1.498;2022-10-31T12:20:26;11.05;;;3.20;;
41897;SDS011;27576;53.366;-1.498;2022-10-31T12:25:52;15.55;;;2.72;;
41897;SDS011;27576;53.366;-1.498;2022-10-31T12:33:47;11.30;;;3.20;;
41897;SDS011;27576;53.366;-1.498;2022-10-31T12:55:48;14.93;;;2.63;;
41897;SDS011;27576;53.366;-1.498;2022-10-31T12:58:26;14.88;;;3.38;;
41897;SDS011;27576;53.366;-1.498;2022-10-31T13:01:01;9.57;;;3.50;;
41897;SDS011;27576;53.366;-1.498;2022-10-31T13:06:40;10.13;;;3.05;;
41897;SDS011;27576;53.366;-1.498;2022-10-31T13:09:12;14.13;;;3.45;;
41897;SDS011;27576;53.366;-1.498;2022-10-31T13:11:53;13.45;;;3.78;;
41897;SDS011;27576;53.366;-1.498;2022-10-31T13:14:29;13.27;;;3.20;;
41897;SDS011;27576;53.366;-1.498;2022-10-31T13:17:03;11.50;;;3.00;;
41897;SDS011;27576;53.366;-1.498;2022-10-31T13:19:31;14.15;;;3.75;;
41897;SDS011;27576;53.366;-1.498;2022-10-31T13:27:41;8.27;;;2.58;;
41897;SDS011;27576;53.366;-1.498;2022-10-31T13:32:49;15.40;;;3.80;;
41897;SDS011;27576;53.366;-1.498;2022-10-31T13:35:25;10.27;;;2.90;;
41897;SDS011;27576;53.366;-1.498;2022-10-31T13:38:23;14.50;;;3.40;;
41897;SDS011;27576;53.366;-1.498;2022-10-31T13:43:27;8.63;;;3.03;;
41897;SDS011;27576;53.366;-1.498;2022-10-31T13:45:59;13.10;;;3.35;;
41897;SDS011;27576;53.366;-1.498;2022-10-31T13:50:57;14.82;;;3.58;;
41897;SDS011;27576;53.366;-1.498;2022-10-31T13:56:30;6.93;;;3.00;;
41897;SDS011;27576;53.366;-1.498;2022-10-31T13:59:03;12.88;;;3.65;;
41897;SDS011;27576;53.366;-1.498;2022-10-31T14:01:35;18.45;;;4.32;;
41897;SDS011;27576;53.366;-1.498;2022-10-31T14:04:07;16.10;;;3.60;;
41897;SDS011;27576;53.366;-1.498;2022-10-31T14:06:45;9.75;;;3.80;;
41897;SDS011;27576;53.366;-1.498;2022-10-31T14:09:18;13.00;;;3.47;;
41897;SDS011;27576;53.366;-1.498;2022-10-31T14:11:47;14.05;;;3.50;;
41897;SDS011;27576;53.366;-1.498;2022-10-31T14:14:14;11.40;;;3.30;;
41897;SDS011;27576;53.366;-1.498;2022-10-31T14:16:40;12.55;;;3.35;;
41897;SDS011;27576;53.366;-1.498;2022-10-31T14:19:19;10.35;;;3.38;;
41897;SDS011;27576;53.366;-1.498;2022-10-31T14:21:49;12.13;;;3.65;;
41897;SDS011;27576;53.366;-1.498;2022-10-31T14:26:54;9.10;;;3.15;;
41897;SDS011;27576;53.366;-1.498;2022-10-31T14:29:30;11.13;;;3.42;;
41897;SDS011;27576;53.366;-1.498;2022-10-31T14:34:36;11.43;;;3.80;;
41897;SDS011;27576;53.366;-1.498;2022-10-31T14:42:47;13.48;;;3.88;;
41897;SDS011;27576;53.366;-1.498;2022-10-31T14:45:46;9.13;;;3.33;;
41897;SDS011;27576;53.366;-1.498;2022-10-31T14:51:32;6.35;;;2.70;;
41897;SDS011;27576;53.366;-1.498;2022-10-31T14:54:04;9.32;;;2.92;;
41897;SDS011;27576;53.366;-1.498;2022-10-31T14:56:34;9.68;;;2.83;;
41897;SDS011;27576;53.366;-1.498;2022-10-31T14:59:03;4.93;;;2.53;;
41897;SDS011;27576;53.366;-1.498;2022-10-31T15:01:35;15.65;;;3.30;;
41897;SDS011;27576;53.366;-1.498;2022-10-31T15:04:16;9.90;;;3.20;;
41897;SDS011;27576;53.366;-1.498;2022-10-31T15:06:58;10.05;;;2.67;;
41897;SDS011;27576;53.366;-1.498;2022-10-31T15:09:33;9.98;;;2.65;;
41897;SDS011;27576;53.366;-1.498;2022-10-31T15:12:00;8.15;;;2.88;;
41897;SDS011;27576;53.366;-1.498;2022-10-31T15:14:29;9.95;;;3.25;;
41897;SDS011;27576;53.366;-1.498;2022-10-31T15:16:56;9.98;;;2.88;;
41897;SDS011;27576;53.366;-1.498;2022-10-31T15:19:23;8.60;;;2.75;;
41897;SDS011;27576;53.366;-1.498;2022-10-31T15:21:51;12.30;;;3.00;;
41897;SDS011;27576;53.366;-1.498;2022-10-31T15:24:19;9.55;;;3.00;;
41897;SDS011;27576;53.366;-1.498;2022-10-31T15:26:46;9.77;;;3.53;;
41897;SDS011;27576;53.366;-1.498;2022-10-31T15:29:15;16.30;;;3.90;;
41897;SDS011;27576;53.366;-1.498;2022-10-31T15:31:49;10.98;;;3.38;;
41897;SDS011;27576;53.366;-1.498;2022-10-31T15:34:19;11.30;;;2.80;;
41897;SDS011;27576;53.366;-1.498;2022-10-31T15:36:47;11.27;;;3.50;;
41897;SDS011;27576;53.366;-1.498;2022-10-31T15:39:15;11.48;;;3.38;;
41897;SDS011;27576;53.366;-1.498;2022-10-31T15:41:51;14.18;;;3.50;;
41897;SDS011;27576;53.366;-1.498;2022-10-31T15:44:22;10.75;;;3.30;;
41897;SDS011;27576;53.366;-1.498;2022-10-31T15:46:53;20.35;;;3.42;;
41897;SDS011;27576;53.366;-1.498;2022-10-31T15:49:31;11.48;;;3.00;;
41897;SDS011;27576;53.366;-1.498;2022-10-31T15:51:58;13.45;;;3.15;;
41897;SDS011;27576;53.366;-1.498;2022-10-31T15:54:33;13.82;;;3.55;;
41897;SDS011;27576;53.366;-1.498;2022-10-31T15:56:59;12.23;;;3.72;;
41897;SDS011;27576;53.366;-1.498;2022-10-31T15:59:25;7.38;;;2.88;;
41897;SDS011;27576;53.366;-1.498;2022-10-31T16:02:00;7.25;;;3.40;;
41897;SDS011;27576;53.366;-1.498;2022-10-31T16:04:28;12.27;;;3.22;;
41897;SDS011;27576;53.366;-1.498;2022-10-31T16:07:13;11.43;;;3.20;;
41897;SDS011;27576;53.366;-1.498;2022-10-31T16:10:41;9.15;;;3.35;;
41897;SDS011;27576;53.366;-1.498;2022-10-31T16:12:48;9.13;;;3.25;;
41897;SDS011;27576;53.366;-1.498;2022-10-31T16:15:15;16.00;;;2.97;;
41897;SDS011;27576;53.366;-1.498;2022-10-31T16:17:42;9.48;;;2.60;;
41897;SDS011;27576;53.366;-1.498;2022-10-31T16:23:05;8.43;;;3.28;;
41897;SDS011;27576;53.366;-1.498;2022-10-31T16:25:34;5.95;;;2.95;;
41897;SDS011;27576;53.366;-1.498;2022-10-31T16:28:03;10.70;;;3.50;;
41897;SDS011;27576;53.366;-1.498;2022-10-31T16:33:02;12.50;;;4.72;;
41897;SDS011;27576;53.366;-1.498;2022-10-31T16:35:35;9.65;;;4.78;;
41897;SDS011;27576;53.366;-1.498;2022-10-31T16:38:04;10.23;;;4.55;;
41897;SDS011;27576;53.366;-1.498;2022-10-31T16:40:30;13.07;;;5.30;;
41897;SDS011;27576;53.366;-1.498;2022-10-31T16:42:57;9.38;;;4.32;;
41897;SDS011;27576;53.366;-1.498;2022-10-31T16:45:28;9.80;;;5.05;;
41897;SDS011;27576;53.366;-1.498;2022-10-31T16:48:01;14.02;;;5.15;;
41897;SDS011;27576;53.366;-1.498;2022-10-31T16:50:28;15.02;;;5.30;;
41897;SDS011;27576;53.366;-1.498;2022-10-31T16:52:54;14.00;;;5.03;;
41897;SDS011;27576;53.366;-1.498;2022-10-31T16:55:20;11.52;;;5.10;;